sensor_id;sensor_type;location;lat;lon;timestamp;P1;durP1;ratioP1;P2;durP2;ratioP2
68234;SDS011;55052;52.056;5.296;2023-08-07T00:02:01;10.43;;;2.38;;
68234;SDS011;55052;52.056;5.296;2023-08-07T00:04:28;7.68;;;2.70;;
68234;SDS011;55052;52.056;5.296;2023-08-07T00:06:54;10.70;;;2.90;;
68234;SDS011;55052;52.056;5.296;2023-08-07T00:09:21;10.48;;;2.92;;
68234;SDS011;55052;52.056;5.296;2023-08-07T00:11:48;12.48;;;2.45;;
68234;SDS011;55052;52.056;5.296;2023-08-07T00:14:15;9.23;;;2.60;;
68234;SDS011;55052;52.056;5.296;2023-08-07T00:16:42;11.27;;;2.67;;
68234;SDS011;55052;52.056;5.296;2023-08-07T00:19:09;11.07;;;2.78;;
68234;SDS011;55052;52.056;5.296;2023-08-07T00:21:37;10.75;;;2.78;;
68234;SDS011;55052;52.056;5.296;2023-08-07T00:24:04;12.65;;;3.28;;
68234;SDS011;55052;52.056;5.296;2023-08-07T00:26:31;14.57;;;2.83;;
68234;SDS011;55052;52.056;5.296;2023-08-07T00:28:58;17.20;;;3.35;;
68234;SDS011;55052;52.056;5.296;2023-08-07T00:31:25;13.32;;;2.88;;
68234;SDS011;55052;52.056;5.296;2023-08-07T00:33:52;14.02;;;2.78;;
68234;SDS011;55052;52.056;5.296;2023-08-07T00:36:20;13.43;;;3.22;;
68234;SDS011;55052;52.056;5.296;2023-08-07T00:38:47;12.57;;;2.78;;
68234;SDS011;55052;52.056;5.296;2023-08-07T00:41:16;12.38;;;2.45;;
68234;SDS011;55052;52.056;5.296;2023-08-07T00:43:44;11.43;;;3.30;;
68234;SDS011;55052;52.056;5.296;2023-08-07T00:46:10;18.45;;;3.88;;
68234;SDS011;55052;52.056;5.296;2023-08-07T00:48:38;11.40;;;3.75;;
68234;SDS011;55052;52.056;5.296;2023-08-07T00:51:05;12.90;;;3.13;;
68234;SDS011;55052;52.056;5.296;2023-08-07T00:53:37;15.73;;;3.00;;
68234;SDS011;55052;52.056;5.296;2023-08-07T00:56:05;13.93;;;3.20;;
68234;SDS011;55052;52.056;5.296;2023-08-07T00:58:32;13.30;;;3.70;;
68234;SDS011;55052;52.056;5.296;2023-08-07T01:01:00;12.45;;;2.50;;
68234;SDS011;55052;52.056;5.296;2023-08-07T01:03:27;16.38;;;3.00;;
68234;SDS011;55052;52.056;5.296;2023-08-07T01:05:54;11.18;;;2.50;;
68234;SDS011;55052;52.056;5.296;2023-08-07T01:08:21;12.00;;;3.45;;
68234;SDS011;55052;52.056;5.296;2023-08-07T01:19:26;13.65;;;2.80;;
68234;SDS011;55052;52.056;5.296;2023-08-07T01:24:38;14.07;;;2.85;;
68234;SDS011;55052;52.056;5.296;2023-08-07T01:29:54;15.13;;;2.38;;
68234;SDS011;55052;52.056;5.296;2023-08-07T01:35:45;12.63;;;2.30;;
68234;SDS011;55052;52.056;5.296;2023-08-07T01:38:14;9.15;;;2.60;;
68234;SDS011;55052;52.056;5.296;2023-08-07T01:40:42;9.52;;;2.20;;
68234;SDS011;55052;52.056;5.296;2023-08-07T01:43:10;11.18;;;2.50;;
68234;SDS011;55052;52.056;5.296;2023-08-07T01:45:37;8.63;;;2.22;;
68234;SDS011;55052;52.056;5.296;2023-08-07T01:48:04;10.55;;;2.47;;
68234;SDS011;55052;52.056;5.296;2023-08-07T01:50:31;9.15;;;2.20;;
68234;SDS011;55052;52.056;5.296;2023-08-07T01:52:58;6.95;;;1.85;;
68234;SDS011;55052;52.056;5.296;2023-08-07T01:55:25;11.68;;;2.47;;
68234;SDS011;55052;52.056;5.296;2023-08-07T01:57:51;8.68;;;2.20;;
68234;SDS011;55052;52.056;5.296;2023-08-07T02:00:18;7.80;;;2.20;;
68234;SDS011;55052;52.056;5.296;2023-08-07T02:02:45;12.13;;;2.70;;
68234;SDS011;55052;52.056;5.296;2023-08-07T02:05:13;12.32;;;2.38;;
68234;SDS011;55052;52.056;5.296;2023-08-07T02:07:41;8.20;;;2.38;;
68234;SDS011;55052;52.056;5.296;2023-08-07T02:10:08;7.68;;;2.17;;
68234;SDS011;55052;52.056;5.296;2023-08-07T02:12:35;12.48;;;2.10;;
68234;SDS011;55052;52.056;5.296;2023-08-07T02:15:02;8.52;;;2.13;;
68234;SDS011;55052;52.056;5.296;2023-08-07T02:17:29;14.30;;;2.25;;
68234;SDS011;55052;52.056;5.296;2023-08-07T02:19:56;7.43;;;2.00;;
68234;SDS011;55052;52.056;5.296;2023-08-07T02:22:24;10.85;;;2.25;;
68234;SDS011;55052;52.056;5.296;2023-08-07T02:24:51;12.25;;;2.40;;
68234;SDS011;55052;52.056;5.296;2023-08-07T02:27:18;9.40;;;1.83;;
68234;SDS011;55052;52.056;5.296;2023-08-07T02:29:45;11.50;;;2.25;;
68234;SDS011;55052;52.056;5.296;2023-08-07T02:32:11;11.90;;;2.80;;
68234;SDS011;55052;52.056;5.296;2023-08-07T02:34:38;8.00;;;2.42;;
68234;SDS011;55052;52.056;5.296;2023-08-07T02:37:05;10.38;;;2.40;;
68234;SDS011;55052;52.056;5.296;2023-08-07T02:39:32;12.25;;;2.70;;
68234;SDS011;55052;52.056;5.296;2023-08-07T02:41:58;10.55;;;2.50;;
68234;SDS011;55052;52.056;5.296;2023-08-07T02:44:25;12.20;;;2.90;;
68234;SDS011;55052;52.056;5.296;2023-08-07T02:46:52;8.00;;;2.53;;
68234;SDS011;55052;52.056;5.296;2023-08-07T02:49:19;11.57;;;2.60;;
68234;SDS011;55052;52.056;5.296;2023-08-07T02:51:46;13.98;;;3.22;;
68234;SDS011;55052;52.056;5.296;2023-08-07T02:54:13;11.63;;;2.75;;
68234;SDS011;55052;52.056;5.296;2023-08-07T02:56:40;11.65;;;2.80;;
68234;SDS011;55052;52.056;5.296;2023-08-07T02:59:07;9.93;;;2.45;;
68234;SDS011;55052;52.056;5.296;2023-08-07T03:01:34;9.88;;;2.72;;
68234;SDS011;55052;52.056;5.296;2023-08-07T03:04:01;15.20;;;2.97;;
68234;SDS011;55052;52.056;5.296;2023-08-07T03:06:28;15.35;;;2.97;;
68234;SDS011;55052;52.056;5.296;2023-08-07T03:08:54;16.00;;;3.72;;
68234;SDS011;55052;52.056;5.296;2023-08-07T03:11:21;16.90;;;2.85;;
68234;SDS011;55052;52.056;5.296;2023-08-07T03:13:48;15.38;;;3.17;;
68234;SDS011;55052;52.056;5.296;2023-08-07T03:16:15;15.50;;;3.58;;
68234;SDS011;55052;52.056;5.296;2023-08-07T03:18:42;11.75;;;2.72;;
68234;SDS011;55052;52.056;5.296;2023-08-07T03:21:09;12.40;;;2.80;;
68234;SDS011;55052;52.056;5.296;2023-08-07T03:23:36;11.70;;;2.83;;
68234;SDS011;55052;52.056;5.296;2023-08-07T03:26:03;10.38;;;2.97;;
68234;SDS011;55052;52.056;5.296;2023-08-07T03:28:34;12.52;;;2.88;;
68234;SDS011;55052;52.056;5.296;2023-08-07T03:31:02;12.82;;;3.03;;
68234;SDS011;55052;52.056;5.296;2023-08-07T03:33:29;15.73;;;2.58;;
68234;SDS011;55052;52.056;5.296;2023-08-07T03:35:56;8.05;;;2.40;;
68234;SDS011;55052;52.056;5.296;2023-08-07T03:38:23;10.43;;;2.50;;
68234;SDS011;55052;52.056;5.296;2023-08-07T03:40:50;9.40;;;2.55;;
68234;SDS011;55052;52.056;5.296;2023-08-07T03:43:16;10.82;;;2.45;;
68234;SDS011;55052;52.056;5.296;2023-08-07T03:45:43;6.80;;;2.30;;
68234;SDS011;55052;52.056;5.296;2023-08-07T03:48:10;8.82;;;2.33;;
68234;SDS011;55052;52.056;5.296;2023-08-07T03:50:37;11.77;;;2.25;;
68234;SDS011;55052;52.056;5.296;2023-08-07T03:53:04;8.57;;;2.20;;
68234;SDS011;55052;52.056;5.296;2023-08-07T03:55:33;6.93;;;2.20;;
68234;SDS011;55052;52.056;5.296;2023-08-07T03:58:01;9.35;;;2.42;;
68234;SDS011;55052;52.056;5.296;2023-08-07T04:00:28;7.25;;;2.00;;
68234;SDS011;55052;52.056;5.296;2023-08-07T04:02:55;5.25;;;1.73;;
68234;SDS011;55052;52.056;5.296;2023-08-07T04:05:22;7.18;;;2.30;;
68234;SDS011;55052;52.056;5.296;2023-08-07T04:07:48;9.82;;;2.17;;
68234;SDS011;55052;52.056;5.296;2023-08-07T04:10:15;13.95;;;2.30;;
68234;SDS011;55052;52.056;5.296;2023-08-07T04:12:42;10.25;;;2.42;;
68234;SDS011;55052;52.056;5.296;2023-08-07T04:15:09;10.82;;;2.80;;
68234;SDS011;55052;52.056;5.296;2023-08-07T04:17:36;11.35;;;2.72;;
68234;SDS011;55052;52.056;5.296;2023-08-07T04:20:03;12.73;;;2.70;;
68234;SDS011;55052;52.056;5.296;2023-08-07T04:22:31;10.07;;;2.63;;
68234;SDS011;55052;52.056;5.296;2023-08-07T04:24:58;11.70;;;2.25;;
68234;SDS011;55052;52.056;5.296;2023-08-07T04:27:26;15.20;;;2.70;;
68234;SDS011;55052;52.056;5.296;2023-08-07T04:29:53;12.18;;;2.50;;
68234;SDS011;55052;52.056;5.296;2023-08-07T04:32:20;12.48;;;2.80;;
68234;SDS011;55052;52.056;5.296;2023-08-07T04:34:48;9.50;;;2.60;;
68234;SDS011;55052;52.056;5.296;2023-08-07T04:37:15;9.55;;;2.20;;
68234;SDS011;55052;52.056;5.296;2023-08-07T04:39:42;14.85;;;2.63;;
68234;SDS011;55052;52.056;5.296;2023-08-07T04:42:08;8.38;;;2.22;;
68234;SDS011;55052;52.056;5.296;2023-08-07T04:44:35;11.73;;;2.40;;
68234;SDS011;55052;52.056;5.296;2023-08-07T04:47:02;12.52;;;2.60;;
68234;SDS011;55052;52.056;5.296;2023-08-07T04:49:29;10.50;;;2.33;;
68234;SDS011;55052;52.056;5.296;2023-08-07T04:51:56;12.98;;;2.60;;
68234;SDS011;55052;52.056;5.296;2023-08-07T04:54:22;16.25;;;2.88;;
68234;SDS011;55052;52.056;5.296;2023-08-07T04:56:49;10.50;;;2.47;;
68234;SDS011;55052;52.056;5.296;2023-08-07T04:59:16;9.07;;;2.60;;
68234;SDS011;55052;52.056;5.296;2023-08-07T05:01:42;9.43;;;2.80;;
68234;SDS011;55052;52.056;5.296;2023-08-07T05:04:09;9.23;;;2.40;;
68234;SDS011;55052;52.056;5.296;2023-08-07T05:06:36;12.18;;;3.38;;
68234;SDS011;55052;52.056;5.296;2023-08-07T05:09:03;11.55;;;2.58;;
68234;SDS011;55052;52.056;5.296;2023-08-07T05:11:30;13.27;;;3.53;;
68234;SDS011;55052;52.056;5.296;2023-08-07T05:13:57;10.98;;;2.60;;
68234;SDS011;55052;52.056;5.296;2023-08-07T05:16:24;13.35;;;2.83;;
68234;SDS011;55052;52.056;5.296;2023-08-07T05:18:51;11.93;;;3.13;;
68234;SDS011;55052;52.056;5.296;2023-08-07T05:21:17;12.77;;;2.97;;
68234;SDS011;55052;52.056;5.296;2023-08-07T05:23:44;8.20;;;2.72;;
68234;SDS011;55052;52.056;5.296;2023-08-07T05:26:11;12.50;;;3.05;;
68234;SDS011;55052;52.056;5.296;2023-08-07T05:28:38;11.25;;;2.83;;
68234;SDS011;55052;52.056;5.296;2023-08-07T05:31:05;14.30;;;3.03;;
68234;SDS011;55052;52.056;5.296;2023-08-07T05:33:31;14.48;;;2.95;;
68234;SDS011;55052;52.056;5.296;2023-08-07T05:35:58;11.07;;;2.92;;
68234;SDS011;55052;52.056;5.296;2023-08-07T05:38:25;10.13;;;2.75;;
68234;SDS011;55052;52.056;5.296;2023-08-07T05:40:52;14.80;;;3.40;;
68234;SDS011;55052;52.056;5.296;2023-08-07T05:43:18;16.27;;;2.83;;
68234;SDS011;55052;52.056;5.296;2023-08-07T05:45:45;10.00;;;2.83;;
68234;SDS011;55052;52.056;5.296;2023-08-07T05:48:12;13.40;;;2.80;;
68234;SDS011;55052;52.056;5.296;2023-08-07T05:50:39;16.23;;;3.17;;
68234;SDS011;55052;52.056;5.296;2023-08-07T05:53:06;7.13;;;2.70;;
68234;SDS011;55052;52.056;5.296;2023-08-07T05:55:33;10.80;;;2.72;;
68234;SDS011;55052;52.056;5.296;2023-08-07T05:58:00;12.10;;;2.80;;
68234;SDS011;55052;52.056;5.296;2023-08-07T06:00:27;8.38;;;2.53;;
68234;SDS011;55052;52.056;5.296;2023-08-07T06:02:54;9.50;;;2.63;;
68234;SDS011;55052;52.056;5.296;2023-08-07T06:05:21;10.05;;;2.35;;
68234;SDS011;55052;52.056;5.296;2023-08-07T06:07:48;9.45;;;2.60;;
68234;SDS011;55052;52.056;5.296;2023-08-07T06:10:15;9.95;;;2.92;;
68234;SDS011;55052;52.056;5.296;2023-08-07T06:12:42;13.23;;;2.78;;
68234;SDS011;55052;52.056;5.296;2023-08-07T06:15:09;13.10;;;3.22;;
68234;SDS011;55052;52.056;5.296;2023-08-07T06:17:36;10.32;;;3.03;;
68234;SDS011;55052;52.056;5.296;2023-08-07T06:20:07;15.00;;;3.03;;
68234;SDS011;55052;52.056;5.296;2023-08-07T06:22:37;12.77;;;3.30;;
68234;SDS011;55052;52.056;5.296;2023-08-07T06:25:04;12.13;;;3.17;;
68234;SDS011;55052;52.056;5.296;2023-08-07T06:27:33;11.95;;;3.15;;
68234;SDS011;55052;52.056;5.296;2023-08-07T06:29:59;13.30;;;2.78;;
68234;SDS011;55052;52.056;5.296;2023-08-07T06:32:27;15.27;;;3.22;;
68234;SDS011;55052;52.056;5.296;2023-08-07T06:34:54;15.68;;;3.92;;
68234;SDS011;55052;52.056;5.296;2023-08-07T06:37:21;14.90;;;3.40;;
68234;SDS011;55052;52.056;5.296;2023-08-07T06:39:48;14.55;;;3.33;;
68234;SDS011;55052;52.056;5.296;2023-08-07T06:42:15;13.45;;;3.00;;
68234;SDS011;55052;52.056;5.296;2023-08-07T06:44:41;14.95;;;3.83;;
68234;SDS011;55052;52.056;5.296;2023-08-07T06:47:08;19.15;;;3.60;;
68234;SDS011;55052;52.056;5.296;2023-08-07T06:49:36;15.57;;;3.25;;
68234;SDS011;55052;52.056;5.296;2023-08-07T06:52:03;20.38;;;3.90;;
68234;SDS011;55052;52.056;5.296;2023-08-07T06:54:30;15.23;;;3.58;;
68234;SDS011;55052;52.056;5.296;2023-08-07T06:56:57;10.55;;;3.25;;
68234;SDS011;55052;52.056;5.296;2023-08-07T06:59:24;11.90;;;3.10;;
68234;SDS011;55052;52.056;5.296;2023-08-07T07:01:51;13.68;;;3.30;;
68234;SDS011;55052;52.056;5.296;2023-08-07T07:04:18;12.00;;;2.80;;
68234;SDS011;55052;52.056;5.296;2023-08-07T07:06:45;14.00;;;3.25;;
68234;SDS011;55052;52.056;5.296;2023-08-07T07:09:12;13.55;;;3.95;;
68234;SDS011;55052;52.056;5.296;2023-08-07T07:14:09;11.85;;;3.20;;
68234;SDS011;55052;52.056;5.296;2023-08-07T07:16:37;12.05;;;3.20;;
68234;SDS011;55052;52.056;5.296;2023-08-07T07:19:04;13.32;;;3.20;;
68234;SDS011;55052;52.056;5.296;2023-08-07T07:21:34;10.80;;;3.05;;
68234;SDS011;55052;52.056;5.296;2023-08-07T07:24:02;10.02;;;2.72;;
68234;SDS011;55052;52.056;5.296;2023-08-07T07:26:29;10.07;;;2.72;;
68234;SDS011;55052;52.056;5.296;2023-08-07T07:28:56;7.75;;;2.65;;
68234;SDS011;55052;52.056;5.296;2023-08-07T07:31:22;13.00;;;3.30;;
68234;SDS011;55052;52.056;5.296;2023-08-07T07:33:49;11.55;;;3.17;;
68234;SDS011;55052;52.056;5.296;2023-08-07T07:36:16;10.05;;;3.20;;
68234;SDS011;55052;52.056;5.296;2023-08-07T07:38:45;10.60;;;3.00;;
68234;SDS011;55052;52.056;5.296;2023-08-07T07:41:15;11.05;;;3.13;;
68234;SDS011;55052;52.056;5.296;2023-08-07T07:43:43;12.73;;;3.30;;
68234;SDS011;55052;52.056;5.296;2023-08-07T07:46:10;15.05;;;2.97;;
68234;SDS011;55052;52.056;5.296;2023-08-07T07:48:37;8.40;;;3.22;;
68234;SDS011;55052;52.056;5.296;2023-08-07T07:51:04;12.13;;;3.13;;
68234;SDS011;55052;52.056;5.296;2023-08-07T07:53:31;11.95;;;3.63;;
68234;SDS011;55052;52.056;5.296;2023-08-07T07:55:58;9.55;;;3.05;;
68234;SDS011;55052;52.056;5.296;2023-08-07T07:58:25;15.68;;;3.78;;
68234;SDS011;55052;52.056;5.296;2023-08-07T08:00:52;11.90;;;3.22;;
68234;SDS011;55052;52.056;5.296;2023-08-07T08:03:20;12.30;;;3.30;;
68234;SDS011;55052;52.056;5.296;2023-08-07T08:05:49;13.20;;;3.85;;
68234;SDS011;55052;52.056;5.296;2023-08-07T08:08:17;17.33;;;3.63;;
68234;SDS011;55052;52.056;5.296;2023-08-07T08:10:44;12.57;;;2.97;;
68234;SDS011;55052;52.056;5.296;2023-08-07T08:13:14;11.37;;;2.83;;
68234;SDS011;55052;52.056;5.296;2023-08-07T08:15:41;10.90;;;2.63;;
68234;SDS011;55052;52.056;5.296;2023-08-07T08:18:09;11.63;;;2.88;;
68234;SDS011;55052;52.056;5.296;2023-08-07T08:20:36;13.23;;;2.95;;
68234;SDS011;55052;52.056;5.296;2023-08-07T08:23:04;12.75;;;2.60;;
68234;SDS011;55052;52.056;5.296;2023-08-07T08:25:31;14.63;;;3.30;;
68234;SDS011;55052;52.056;5.296;2023-08-07T08:27:59;11.82;;;2.85;;
68234;SDS011;55052;52.056;5.296;2023-08-07T08:30:27;12.88;;;2.83;;
68234;SDS011;55052;52.056;5.296;2023-08-07T08:32:54;9.80;;;2.40;;
68234;SDS011;55052;52.056;5.296;2023-08-07T08:35:21;10.10;;;2.55;;
68234;SDS011;55052;52.056;5.296;2023-08-07T08:37:48;10.60;;;2.80;;
68234;SDS011;55052;52.056;5.296;2023-08-07T08:40:15;15.90;;;2.78;;
68234;SDS011;55052;52.056;5.296;2023-08-07T08:42:43;13.80;;;2.78;;
68234;SDS011;55052;52.056;5.296;2023-08-07T08:45:12;12.80;;;3.15;;
68234;SDS011;55052;52.056;5.296;2023-08-07T08:47:41;11.45;;;2.83;;
68234;SDS011;55052;52.056;5.296;2023-08-07T08:50:13;12.63;;;3.17;;
68234;SDS011;55052;52.056;5.296;2023-08-07T08:52:41;14.30;;;3.70;;
68234;SDS011;55052;52.056;5.296;2023-08-07T08:55:11;12.87;;;2.97;;
68234;SDS011;55052;52.056;5.296;2023-08-07T08:57:39;10.82;;;2.42;;
68234;SDS011;55052;52.056;5.296;2023-08-07T09:00:07;8.73;;;2.47;;
68234;SDS011;55052;52.056;5.296;2023-08-07T09:02:47;10.85;;;2.55;;
68234;SDS011;55052;52.056;5.296;2023-08-07T09:05:15;12.93;;;2.60;;
68234;SDS011;55052;52.056;5.296;2023-08-07T09:07:43;11.90;;;2.30;;
68234;SDS011;55052;52.056;5.296;2023-08-07T09:10:16;13.43;;;2.80;;
68234;SDS011;55052;52.056;5.296;2023-08-07T09:12:50;12.60;;;2.67;;
68234;SDS011;55052;52.056;5.296;2023-08-07T09:15:18;13.18;;;2.72;;
68234;SDS011;55052;52.056;5.296;2023-08-07T09:17:47;10.45;;;2.72;;
68234;SDS011;55052;52.056;5.296;2023-08-07T09:20:15;11.45;;;2.88;;
68234;SDS011;55052;52.056;5.296;2023-08-07T09:22:42;8.10;;;2.50;;
68234;SDS011;55052;52.056;5.296;2023-08-07T09:25:09;10.43;;;2.58;;
68234;SDS011;55052;52.056;5.296;2023-08-07T09:27:37;8.73;;;2.42;;
68234;SDS011;55052;52.056;5.296;2023-08-07T09:30:05;12.15;;;3.15;;
68234;SDS011;55052;52.056;5.296;2023-08-07T09:32:35;14.65;;;3.30;;
68234;SDS011;55052;52.056;5.296;2023-08-07T09:35:02;15.95;;;3.15;;
68234;SDS011;55052;52.056;5.296;2023-08-07T09:37:32;9.88;;;2.72;;
68234;SDS011;55052;52.056;5.296;2023-08-07T09:40:02;8.43;;;2.35;;
68234;SDS011;55052;52.056;5.296;2023-08-07T09:42:31;9.85;;;2.25;;
68234;SDS011;55052;52.056;5.296;2023-08-07T09:44:59;11.50;;;2.83;;
68234;SDS011;55052;52.056;5.296;2023-08-07T09:47:26;8.98;;;2.30;;
68234;SDS011;55052;52.056;5.296;2023-08-07T09:49:55;10.18;;;2.60;;
68234;SDS011;55052;52.056;5.296;2023-08-07T09:52:22;9.93;;;2.60;;
68234;SDS011;55052;52.056;5.296;2023-08-07T09:54:55;9.02;;;2.85;;
68234;SDS011;55052;52.056;5.296;2023-08-07T09:57:23;11.50;;;2.53;;
68234;SDS011;55052;52.056;5.296;2023-08-07T09:59:51;9.55;;;2.38;;
68234;SDS011;55052;52.056;5.296;2023-08-07T10:02:19;8.02;;;3.03;;
68234;SDS011;55052;52.056;5.296;2023-08-07T10:04:47;10.40;;;2.55;;
68234;SDS011;55052;52.056;5.296;2023-08-07T10:07:16;9.00;;;2.60;;
68234;SDS011;55052;52.056;5.296;2023-08-07T10:09:43;9.98;;;2.80;;
68234;SDS011;55052;52.056;5.296;2023-08-07T10:12:11;11.98;;;2.83;;
68234;SDS011;55052;52.056;5.296;2023-08-07T10:14:39;13.73;;;3.20;;
68234;SDS011;55052;52.056;5.296;2023-08-07T10:17:07;12.25;;;3.00;;
68234;SDS011;55052;52.056;5.296;2023-08-07T10:19:34;12.82;;;2.72;;
68234;SDS011;55052;52.056;5.296;2023-08-07T10:22:01;11.27;;;2.55;;
68234;SDS011;55052;52.056;5.296;2023-08-07T10:24:29;8.77;;;2.92;;
68234;SDS011;55052;52.056;5.296;2023-08-07T10:26:57;12.90;;;2.92;;
68234;SDS011;55052;52.056;5.296;2023-08-07T10:29:25;10.77;;;2.65;;
68234;SDS011;55052;52.056;5.296;2023-08-07T10:31:55;8.85;;;2.75;;
68234;SDS011;55052;52.056;5.296;2023-08-07T10:34:23;12.93;;;2.72;;
68234;SDS011;55052;52.056;5.296;2023-08-07T10:36:50;13.45;;;2.65;;
68234;SDS011;55052;52.056;5.296;2023-08-07T10:39:17;8.25;;;2.72;;
68234;SDS011;55052;52.056;5.296;2023-08-07T10:41:45;9.48;;;2.38;;
68234;SDS011;55052;52.056;5.296;2023-08-07T10:44:25;9.65;;;2.70;;
68234;SDS011;55052;52.056;5.296;2023-08-07T10:46:57;9.10;;;2.40;;
68234;SDS011;55052;52.056;5.296;2023-08-07T10:49:37;9.27;;;2.53;;
68234;SDS011;55052;52.056;5.296;2023-08-07T10:52:11;11.27;;;2.20;;
68234;SDS011;55052;52.056;5.296;2023-08-07T10:54:39;8.13;;;2.20;;
68234;SDS011;55052;52.056;5.296;2023-08-07T10:57:10;10.07;;;2.72;;
68234;SDS011;55052;52.056;5.296;2023-08-07T11:02:29;8.18;;;2.17;;
68234;SDS011;55052;52.056;5.296;2023-08-07T11:04:57;9.10;;;2.20;;
68234;SDS011;55052;52.056;5.296;2023-08-07T11:07:24;8.52;;;2.53;;
68234;SDS011;55052;52.056;5.296;2023-08-07T11:09:53;8.13;;;2.30;;
68234;SDS011;55052;52.056;5.296;2023-08-07T11:12:20;7.28;;;2.15;;
68234;SDS011;55052;52.056;5.296;2023-08-07T11:14:50;10.98;;;2.88;;
68234;SDS011;55052;52.056;5.296;2023-08-07T11:17:18;8.90;;;2.25;;
68234;SDS011;55052;52.056;5.296;2023-08-07T11:19:48;8.52;;;2.28;;
68234;SDS011;55052;52.056;5.296;2023-08-07T11:22:15;9.88;;;2.72;;
68234;SDS011;55052;52.056;5.296;2023-08-07T11:24:42;11.07;;;2.60;;
68234;SDS011;55052;52.056;5.296;2023-08-07T11:27:09;10.52;;;2.50;;
68234;SDS011;55052;52.056;5.296;2023-08-07T11:29:36;9.48;;;2.47;;
68234;SDS011;55052;52.056;5.296;2023-08-07T11:32:03;6.85;;;2.30;;
68234;SDS011;55052;52.056;5.296;2023-08-07T11:34:30;8.32;;;2.53;;
68234;SDS011;55052;52.056;5.296;2023-08-07T11:36:57;10.00;;;2.22;;
68234;SDS011;55052;52.056;5.296;2023-08-07T11:39:24;10.60;;;2.95;;
68234;SDS011;55052;52.056;5.296;2023-08-07T11:41:52;10.27;;;2.60;;
68234;SDS011;55052;52.056;5.296;2023-08-07T11:44:19;11.73;;;3.20;;
68234;SDS011;55052;52.056;5.296;2023-08-07T11:46:46;10.00;;;2.33;;
68234;SDS011;55052;52.056;5.296;2023-08-07T11:49:13;11.07;;;2.50;;
68234;SDS011;55052;52.056;5.296;2023-08-07T11:51:39;9.68;;;2.58;;
68234;SDS011;55052;52.056;5.296;2023-08-07T11:54:06;10.40;;;2.53;;
68234;SDS011;55052;52.056;5.296;2023-08-07T11:56:33;6.55;;;2.45;;
68234;SDS011;55052;52.056;5.296;2023-08-07T11:59:00;6.00;;;2.38;;
68234;SDS011;55052;52.056;5.296;2023-08-07T12:01:29;8.18;;;2.75;;
68234;SDS011;55052;52.056;5.296;2023-08-07T12:06:32;9.55;;;2.20;;
68234;SDS011;55052;52.056;5.296;2023-08-07T12:09:00;4.47;;;1.90;;
68234;SDS011;55052;52.056;5.296;2023-08-07T12:11:28;6.22;;;2.22;;
68234;SDS011;55052;52.056;5.296;2023-08-07T12:13:59;7.28;;;2.10;;
68234;SDS011;55052;52.056;5.296;2023-08-07T12:16:27;5.63;;;1.95;;
68234;SDS011;55052;52.056;5.296;2023-08-07T12:18:59;7.15;;;2.40;;
68234;SDS011;55052;52.056;5.296;2023-08-07T12:21:26;6.18;;;2.03;;
68234;SDS011;55052;52.056;5.296;2023-08-07T12:23:56;5.50;;;2.00;;
68234;SDS011;55052;52.056;5.296;2023-08-07T12:26:23;7.45;;;2.53;;
68234;SDS011;55052;52.056;5.296;2023-08-07T12:28:50;8.63;;;2.35;;
68234;SDS011;55052;52.056;5.296;2023-08-07T12:31:18;7.30;;;2.40;;
68234;SDS011;55052;52.056;5.296;2023-08-07T12:33:45;6.93;;;2.05;;
68234;SDS011;55052;52.056;5.296;2023-08-07T12:36:12;10.98;;;2.53;;
68234;SDS011;55052;52.056;5.296;2023-08-07T12:38:43;6.00;;;2.13;;
68234;SDS011;55052;52.056;5.296;2023-08-07T12:41:10;7.88;;;2.13;;
68234;SDS011;55052;52.056;5.296;2023-08-07T12:43:40;8.88;;;2.45;;
68234;SDS011;55052;52.056;5.296;2023-08-07T12:46:07;6.22;;;2.28;;
68234;SDS011;55052;52.056;5.296;2023-08-07T12:48:37;9.30;;;2.55;;
68234;SDS011;55052;52.056;5.296;2023-08-07T12:51:03;8.45;;;2.38;;
68234;SDS011;55052;52.056;5.296;2023-08-07T12:53:30;4.43;;;2.00;;
68234;SDS011;55052;52.056;5.296;2023-08-07T12:55:58;7.60;;;2.20;;
68234;SDS011;55052;52.056;5.296;2023-08-07T12:58:24;6.60;;;1.98;;
68234;SDS011;55052;52.056;5.296;2023-08-07T13:00:53;7.72;;;2.05;;
68234;SDS011;55052;52.056;5.296;2023-08-07T13:03:20;8.70;;;2.30;;
68234;SDS011;55052;52.056;5.296;2023-08-07T13:05:47;5.47;;;1.92;;
68234;SDS011;55052;52.056;5.296;2023-08-07T13:08:14;8.05;;;1.90;;
68234;SDS011;55052;52.056;5.296;2023-08-07T13:10:41;9.82;;;2.10;;
68234;SDS011;55052;52.056;5.296;2023-08-07T13:13:08;3.85;;;1.63;;
68234;SDS011;55052;52.056;5.296;2023-08-07T13:15:35;6.60;;;2.00;;
68234;SDS011;55052;52.056;5.296;2023-08-07T13:18:01;6.60;;;2.10;;
68234;SDS011;55052;52.056;5.296;2023-08-07T13:20:29;6.10;;;2.15;;
68234;SDS011;55052;52.056;5.296;2023-08-07T13:23:00;5.78;;;1.90;;
68234;SDS011;55052;52.056;5.296;2023-08-07T13:25:27;5.38;;;2.00;;
68234;SDS011;55052;52.056;5.296;2023-08-07T13:27:54;5.97;;;2.15;;
68234;SDS011;55052;52.056;5.296;2023-08-07T13:30:21;6.50;;;1.90;;
68234;SDS011;55052;52.056;5.296;2023-08-07T13:32:48;4.97;;;1.90;;
68234;SDS011;55052;52.056;5.296;2023-08-07T13:35:15;6.78;;;2.00;;
68234;SDS011;55052;52.056;5.296;2023-08-07T13:37:43;8.38;;;1.77;;
68234;SDS011;55052;52.056;5.296;2023-08-07T13:40:09;5.38;;;1.65;;
68234;SDS011;55052;52.056;5.296;2023-08-07T13:42:38;5.43;;;1.92;;
68234;SDS011;55052;52.056;5.296;2023-08-07T13:45:05;5.32;;;1.95;;
68234;SDS011;55052;52.056;5.296;2023-08-07T13:47:33;6.45;;;1.85;;
68234;SDS011;55052;52.056;5.296;2023-08-07T13:50:02;7.60;;;2.03;;
68234;SDS011;55052;52.056;5.296;2023-08-07T13:52:29;6.80;;;1.92;;
68234;SDS011;55052;52.056;5.296;2023-08-07T13:54:57;5.03;;;1.50;;
68234;SDS011;55052;52.056;5.296;2023-08-07T13:57:24;6.25;;;1.73;;
68234;SDS011;55052;52.056;5.296;2023-08-07T13:59:50;5.75;;;1.70;;
68234;SDS011;55052;52.056;5.296;2023-08-07T14:02:17;5.88;;;1.52;;
68234;SDS011;55052;52.056;5.296;2023-08-07T14:04:44;5.28;;;1.90;;
68234;SDS011;55052;52.056;5.296;2023-08-07T14:07:12;6.65;;;1.90;;
68234;SDS011;55052;52.056;5.296;2023-08-07T14:09:39;5.90;;;1.80;;
68234;SDS011;55052;52.056;5.296;2023-08-07T14:12:06;5.10;;;1.75;;
68234;SDS011;55052;52.056;5.296;2023-08-07T14:14:33;5.30;;;1.70;;
68234;SDS011;55052;52.056;5.296;2023-08-07T14:17:00;5.93;;;1.73;;
68234;SDS011;55052;52.056;5.296;2023-08-07T14:19:28;6.43;;;2.28;;
68234;SDS011;55052;52.056;5.296;2023-08-07T14:21:55;8.88;;;2.17;;
68234;SDS011;55052;52.056;5.296;2023-08-07T14:24:22;5.45;;;1.73;;
68234;SDS011;55052;52.056;5.296;2023-08-07T14:26:49;8.57;;;1.95;;
68234;SDS011;55052;52.056;5.296;2023-08-07T14:29:16;5.40;;;1.77;;
68234;SDS011;55052;52.056;5.296;2023-08-07T14:31:43;3.65;;;1.80;;
68234;SDS011;55052;52.056;5.296;2023-08-07T14:34:09;5.32;;;1.92;;
68234;SDS011;55052;52.056;5.296;2023-08-07T14:36:36;6.03;;;1.90;;
68234;SDS011;55052;52.056;5.296;2023-08-07T14:39:03;6.63;;;1.83;;
68234;SDS011;55052;52.056;5.296;2023-08-07T14:41:30;5.00;;;2.10;;
68234;SDS011;55052;52.056;5.296;2023-08-07T14:43:57;4.65;;;2.10;;
68234;SDS011;55052;52.056;5.296;2023-08-07T14:46:23;4.47;;;1.70;;
68234;SDS011;55052;52.056;5.296;2023-08-07T14:48:50;4.10;;;1.60;;
68234;SDS011;55052;52.056;5.296;2023-08-07T14:51:17;4.97;;;1.88;;
68234;SDS011;55052;52.056;5.296;2023-08-07T14:53:44;5.10;;;2.05;;
68234;SDS011;55052;52.056;5.296;2023-08-07T14:56:11;6.60;;;2.30;;
68234;SDS011;55052;52.056;5.296;2023-08-07T14:58:38;7.90;;;2.20;;
68234;SDS011;55052;52.056;5.296;2023-08-07T15:01:05;4.78;;;2.20;;
68234;SDS011;55052;52.056;5.296;2023-08-07T15:03:32;6.97;;;2.55;;
68234;SDS011;55052;52.056;5.296;2023-08-07T15:05:59;4.85;;;1.95;;
68234;SDS011;55052;52.056;5.296;2023-08-07T15:08:26;5.43;;;2.28;;